Time;durP1;ratioP1;P1;durP2;ratioP2;P2;SDS_P1;SDS_P2;PMS_P1;PMS_P2;Temp;Humidity;BMP_temperature;BMP_pressure;BME280_temperature;BME280_humidity;BME280_pressure;Samples;Min_cycle;Max_cycle;Signal;HPM_P1;HPM_P2
2023/05/31 00:00:21;;;;;;;;;;;8.20;99.90;;;;;;5087594;28;20368;-77
2023/05/31 00:02:47;;;;;;;;;;;8.20;99.90;;;;;;5088785;28;19924;-77
2023/05/31 00:05:12;;;;;;;;;;;8.10;99.90;;;;;;5116956;27;19963;-78
2023/05/31 00:07:38;;;;;;;;;;;8.10;99.90;;;;;;5096764;28;20009;-80
2023/05/31 00:10:04;;;;;;;;;;;7.90;96.30;;;;;;5106282;28;20538;-78
2023/05/31 00:12:29;;;;;;;;;;;7.80;99.90;;;;;;5103991;28;19924;-80
2023/05/31 00:14:55;;;;;;;;;;;7.80;99.90;;;;;;5085968;28;19981;-77
2023/05/31 00:17:20;;;;;;;;;;;7.80;99.90;;;;;;5101781;28;19924;-77
2023/05/31 00:19:46;;;;;;;;;;;7.80;99.90;;;;;;5094670;28;19931;-77
2023/05/31 00:22:12;;;;;;;;;;;8.00;99.90;;;;;;5107871;28;19924;-82
2023/05/31 00:24:37;;;;;;;;;;;7.90;99.90;;;;;;5106207;28;20357;-77
2023/05/31 00:27:03;;;;;;;;;;;8.00;99.90;;;;;;5097917;28;19928;-77
2023/05/31 00:29:29;;;;;;;;;;;8.00;99.90;;;;;;5099123;28;19993;-78
2023/05/31 00:31:54;;;;;;;;;;;8.00;99.90;;;;;;5104638;28;19931;-81
2023/05/31 00:34:20;;;;;;;;;;;8.00;99.90;;;;;;5116537;28;19977;-77
2023/05/31 00:36:45;;;;;;;;;;;8.00;99.90;;;;;;5098018;28;20369;-78
2023/05/31 00:39:11;;;;;;;;;;;8.00;99.90;;;;;;5101881;28;19923;-77
2023/05/31 00:41:36;;;;;;;;;;;8.10;99.90;;;;;;5094487;28;19924;-77
2023/05/31 00:44:02;;;;;;;;;;;8.10;99.90;;;;;;5089903;28;19927;-77
2023/05/31 00:46:30;;;;;;;;;;;8.10;99.90;;;;;;5106020;28;19928;-77
2023/05/31 00:48:55;;;;;;;;;;;8.10;99.90;;;;;;5107212;28;19924;-78
2023/05/31 00:51:21;;;;;;;;;;;8.10;99.90;;;;;;5108689;28;19924;-77
2023/05/31 00:53:47;;;;;;;;;;;8.00;99.90;;;;;;5111231;28;19969;-77
2023/05/31 00:56:13;;;;;;;;;;;8.00;99.90;;;;;;5088794;28;20399;-77
2023/05/31 00:58:40;;;;;;;;;;;8.00;99.90;;;;;;5121824;27;19988;-78
2023/05/31 01:01:06;;;;;;;;;;;8.00;99.90;;;;;;5101379;28;19953;-77
2023/05/31 01:03:31;;;;;;;;;;;7.90;99.90;;;;;;5105542;28;19935;-80
2023/05/31 01:05:57;;;;;;;;;;;7.80;99.90;;;;;;5109836;28;19972;-77
2023/05/31 01:08:22;;;;;;;;;;;7.70;99.90;;;;;;5102935;28;19932;-77
2023/05/31 01:10:50;;;;;;;;;;;7.60;99.90;;;;;;5103895;28;19935;-77
2023/05/31 01:13:19;;;;;;;;;;;7.50;99.90;;;;;;5109271;28;19932;-77
2023/05/31 01:15:51;;;;;;;;;;;7.50;99.90;;;;;;5102374;28;20210;-80
2023/05/31 01:18:25;;;;;;;;;;;7.40;99.90;;;;;;5103494;28;19963;-77
2023/05/31 01:20:53;;;;;;;;;;;7.40;99.90;;;;;;5088981;28;19924;-77
2023/05/31 01:23:42;;;;;;;;;;;7.30;99.90;;;;;;5108498;28;19927;-84
2023/05/31 01:26:27;;;;;;;;;;;7.20;99.90;;;;;;5100711;27;19923;-77
2023/05/31 01:28:55;;;;;;;;;;;7.20;99.90;;;;;;5105379;28;20404;-77
2023/05/31 01:31:21;;;;;;;;;;;7.20;99.90;;;;;;5107343;28;19956;-83
2023/05/31 01:33:48;;;;;;;;;;;7.30;99.90;;;;;;5107486;28;19927;-77
2023/05/31 01:36:14;;;;;;;;;;;7.30;99.90;;;;;;5108444;28;19928;-77
2023/05/31 01:38:39;;;;;;;;;;;7.30;99.90;;;;;;5100470;28;21311;-77
2023/05/31 01:41:06;;;;;;;;;;;7.30;99.90;;;;;;5103365;28;19943;-78
2023/05/31 01:43:33;;;;;;;;;;;7.30;99.90;;;;;;5106199;28;19928;-77
2023/05/31 01:46:00;;;;;;;;;;;7.30;99.90;;;;;;5104987;28;19935;-77
2023/05/31 01:48:26;;;;;;;;;;;7.30;99.90;;;;;;5109594;28;19924;-77
2023/05/31 01:50:52;;;;;;;;;;;7.20;99.90;;;;;;5092053;28;19924;-77
2023/05/31 01:53:18;;;;;;;;;;;7.10;99.90;;;;;;5109686;28;20261;-77
2023/05/31 01:55:44;;;;;;;;;;;7.10;99.90;;;;;;5102232;28;19997;-78
2023/05/31 01:58:10;;;;;;;;;;;7.10;99.90;;;;;;5104196;28;19934;-79
2023/05/31 02:00:36;;;;;;;;;;;7.10;99.90;;;;;;5108732;28;19947;-77
2023/05/31 02:03:03;;;;;;;;;;;7.10;99.90;;;;;;5107637;28;19932;-77
2023/05/31 02:05:28;;;;;;;;;;;7.10;99.90;;;;;;5106401;28;19941;-80
2023/05/31 02:07:54;;;;;;;;;;;7.10;99.90;;;;;;5088141;28;20486;-81
2023/05/31 02:10:20;;;;;;;;;;;7.10;99.90;;;;;;5101781;28;19928;-77
2023/05/31 02:12:45;;;;;;;;;;;7.00;99.90;;;;;;5103011;28;20141;-77
2023/05/31 02:15:12;;;;;;;;;;;7.00;99.90;;;;;;5099059;28;20497;-79
2023/05/31 02:17:40;;;;;;;;;;;7.00;99.90;;;;;;5102812;28;20104;-77
2023/05/31 02:20:07;;;;;;;;;;;7.00;99.90;;;;;;5088033;28;19969;-77
2023/05/31 02:22:33;;;;;;;;;;;7.00;99.90;;;;;;5113064;27;20032;-77
2023/05/31 02:24:58;;;;;;;;;;;7.00;99.90;;;;;;5109110;28;19980;-77
2023/05/31 02:27:24;;;;;;;;;;;7.00;99.90;;;;;;5108317;28;19931;-78
2023/05/31 02:29:50;;;;;;;;;;;6.90;99.90;;;;;;5103375;28;19931;-77
2023/05/31 02:32:15;;;;;;;;;;;6.80;99.90;;;;;;5106554;28;20015;-77
2023/05/31 02:34:42;;;;;;;;;;;6.70;99.90;;;;;;5107183;27;19924;-77
2023/05/31 02:37:08;;;;;;;;;;;6.70;99.90;;;;;;5104091;27;19931;-78
2023/05/31 02:39:33;;;;;;;;;;;6.90;99.90;;;;;;5106139;27;19935;-77
2023/05/31 02:41:59;;;;;;;;;;;6.90;99.90;;;;;;5097765;28;19928;-79
2023/05/31 02:44:25;;;;;;;;;;;6.80;99.90;;;;;;5104742;28;19928;-78
2023/05/31 02:46:50;;;;;;;;;;;6.80;99.90;;;;;;5108754;28;19977;-77
2023/05/31 02:49:16;;;;;;;;;;;6.80;1.00;;;;;;5104907;28;19931;-78
2023/05/31 02:51:41;;;;;;;;;;;6.80;1.00;;;;;;5106506;28;19927;-77
2023/05/31 02:54:07;;;;;;;;;;;6.90;1.00;;;;;;5108375;28;19924;-77
2023/05/31 02:56:33;;;;;;;;;;;6.90;1.00;;;;;;5102917;28;20612;-83
2023/05/31 02:58:58;;;;;;;;;;;6.90;1.00;;;;;;5100489;28;19931;-77
2023/05/31 03:01:24;;;;;;;;;;;6.90;1.00;;;;;;5106531;28;20027;-77
2023/05/31 03:03:49;;;;;;;;;;;7.00;1.00;;;;;;5102892;28;19974;-78
2023/05/31 03:06:19;;;;;;;;;;;7.00;1.00;;;;;;5085471;28;19928;-78
2023/05/31 03:08:44;;;;;;;;;;;7.00;1.00;;;;;;5105551;28;20010;-81
2023/05/31 03:11:10;;;;;;;;;;;7.00;1.00;;;;;;5101916;28;20428;-77
2023/05/31 03:13:36;;;;;;;;;;;7.00;1.00;;;;;;5110895;28;19927;-77
2023/05/31 03:16:01;;;;;;;;;;;6.80;1.00;;;;;;5105802;28;19932;-76
2023/05/31 03:18:27;;;;;;;;;;;6.90;1.00;;;;;;5100794;28;19945;-76
2023/05/31 03:20:52;;;;;;;;;;;6.80;1.00;;;;;;5101509;28;19957;-77
2023/05/31 03:23:18;;;;;;;;;;;6.70;1.00;;;;;;5108389;28;19923;-77
2023/05/31 03:25:43;;;;;;;;;;;6.70;1.00;;;;;;5098496;28;19930;-78
2023/05/31 03:28:10;;;;;;;;;;;6.70;1.00;;;;;;5108197;28;19936;-77
2023/05/31 03:30:35;;;;;;;;;;;6.60;1.00;;;;;;5090425;28;20113;-82
2023/05/31 03:33:02;;;;;;;;;;;6.60;1.00;;;;;;5088237;28;20028;-77
2023/05/31 03:35:28;;;;;;;;;;;6.70;1.00;;;;;;5091853;28;19970;-77
2023/05/31 03:37:53;;;;;;;;;;;6.70;1.00;;;;;;5095287;27;19924;-77
2023/05/31 03:40:19;;;;;;;;;;;6.60;1.00;;;;;;5101623;28;19927;-78
2023/05/31 03:42:45;;;;;;;;;;;6.70;1.00;;;;;;5086107;28;19928;-77
2023/05/31 03:45:11;;;;;;;;;;;6.70;1.00;;;;;;5102274;28;19931;-77
2023/05/31 03:47:36;;;;;;;;;;;6.70;1.00;;;;;;5090626;28;19981;-77
2023/05/31 03:50:03;;;;;;;;;;;6.70;1.00;;;;;;5105875;28;19927;-77
2023/05/31 03:52:29;;;;;;;;;;;6.80;1.00;;;;;;5082053;28;19928;-78
2023/05/31 03:54:54;;;;;;;;;;;6.80;1.00;;;;;;5094022;28;19935;-80
2023/05/31 03:57:20;;;;;;;;;;;6.90;1.00;;;;;;5104282;28;19932;-77
2023/05/31 03:59:46;;;;;;;;;;;7.00;1.00;;;;;;5104046;28;19924;-77
2023/05/31 04:02:11;;;;;;;;;;;7.10;1.00;;;;;;5112579;27;19939;-78
2023/05/31 04:04:37;;;;;;;;;;;7.10;1.00;;;;;;5082801;28;19924;-77
2023/05/31 04:07:02;;;;;;;;;;;7.20;1.00;;;;;;5101728;28;19932;-77
2023/05/31 04:09:28;;;;;;;;;;;7.20;1.00;;;;;;5101153;28;20003;-77
2023/05/31 04:11:54;;;;;;;;;;;7.30;1.00;;;;;;5101414;28;20061;-78
2023/05/31 04:14:19;;;;;;;;;;;7.30;1.00;;;;;;5088387;28;20328;-82
2023/05/31 04:16:45;;;;;;;;;;;7.30;1.00;;;;;;5104298;28;19928;-81
2023/05/31 04:19:10;;;;;;;;;;;7.30;1.00;;;;;;5087757;28;19976;-77
2023/05/31 04:21:36;;;;;;;;;;;7.30;1.00;;;;;;5103561;28;19932;-77
2023/05/31 04:24:01;;;;;;;;;;;7.40;1.00;;;;;;5103704;28;19927;-77
2023/05/31 04:26:28;;;;;;;;;;;7.40;1.00;;;;;;5104599;28;19924;-77
2023/05/31 04:28:54;;;;;;;;;;;7.50;1.00;;;;;;5102350;28;19931;-78
2023/05/31 04:31:24;;;;;;;;;;;7.60;1.00;;;;;;5092635;28;20061;-78
2023/05/31 04:33:51;;;;;;;;;;;7.60;1.00;;;;;;5108207;28;20452;-79
2023/05/31 04:36:16;;;;;;;;;;;7.70;1.00;;;;;;5074913;28;19984;-78
2023/05/31 04:38:42;;;;;;;;;;;7.70;1.00;;;;;;5097717;28;19924;-77
2023/05/31 04:41:08;;;;;;;;;;;7.80;1.00;;;;;;5087199;28;19931;-77
2023/05/31 04:43:33;;;;;;;;;;;7.80;1.00;;;;;;5098497;28;20013;-78
2023/05/31 04:46:00;;;;;;;;;;;7.90;1.00;;;;;;5107404;28;19954;-77
2023/05/31 04:48:26;;;;;;;;;;;7.90;1.00;;;;;;5099381;28;19949;-78
2023/05/31 04:50:54;;;;;;;;;;;8.00;1.00;;;;;;5104922;28;19928;-76
2023/05/31 04:53:20;;;;;;;;;;;8.10;1.00;;;;;;5100966;28;20012;-82
2023/05/31 04:55:46;;;;;;;;;;;8.20;1.00;;;;;;5078545;28;19977;-83
2023/05/31 04:58:11;;;;;;;;;;;8.30;1.00;;;;;;5082439;28;19924;-79
2023/05/31 05:00:37;;;;;;;;;;;8.30;1.00;;;;;;5103134;28;20467;-77
2023/05/31 05:03:03;;;;;;;;;;;8.40;1.00;;;;;;5094479;28;20397;-77
2023/05/31 05:05:28;;;;;;;;;;;8.50;1.00;;;;;;5089703;28;19930;-76
2023/05/31 05:07:54;;;;;;;;;;;8.50;1.00;;;;;;5108261;28;20024;-76
2023/05/31 05:10:20;;;;;;;;;;;8.60;1.00;;;;;;5109785;28;19975;-78
2023/05/31 05:12:45;;;;;;;;;;;8.70;1.00;;;;;;5093881;28;19928;-76
2023/05/31 05:15:11;;;;;;;;;;;8.80;1.00;;;;;;5096782;28;19924;-75
2023/05/31 05:17:37;;;;;;;;;;;8.90;1.00;;;;;;5103437;28;20325;-76
2023/05/31 05:20:05;;;;;;;;;;;9.00;1.00;;;;;;5100970;28;20293;-76
2023/05/31 05:22:30;;;;;;;;;;;9.10;1.00;;;;;;5111875;28;20040;-76
2023/05/31 05:24:56;;;;;;;;;;;9.10;1.00;;;;;;5110026;28;20324;-78
2023/05/31 05:27:21;;;;;;;;;;;9.30;1.00;;;;;;5103905;28;19924;-77
2023/05/31 05:29:47;;;;;;;;;;;9.40;1.00;;;;;;5112339;28;19967;-77
2023/05/31 05:32:13;;;;;;;;;;;9.40;1.00;;;;;;5110110;28;19932;-77
2023/05/31 05:34:38;;;;;;;;;;;9.50;1.00;;;;;;5090467;28;19924;-79
2023/05/31 05:37:04;;;;;;;;;;;9.70;1.00;;;;;;5109224;28;20312;-78
2023/05/31 05:39:30;;;;;;;;;;;9.80;1.00;;;;;;5105402;28;19935;-79
2023/05/31 05:41:55;;;;;;;;;;;9.90;1.00;;;;;;5091143;28;19924;-77
2023/05/31 05:44:21;;;;;;;;;;;10.00;1.00;;;;;;5109876;28;19924;-84
2023/05/31 05:46:46;;;;;;;;;;;10.20;4.90;;;;;;5109512;28;19930;-77
2023/05/31 05:49:12;;;;;;;;;;;10.30;15.80;;;;;;5104353;28;19932;-76
2023/05/31 05:51:38;;;;;;;;;;;10.50;21.40;;;;;;5097914;28;20338;-77
2023/05/31 05:54:03;;;;;;;;;;;10.60;27.30;;;;;;5092050;28;19928;-79
2023/05/31 05:56:29;;;;;;;;;;;10.80;38.70;;;;;;5103820;28;19953;-79
2023/05/31 05:58:55;;;;;;;;;;;11.00;55.00;;;;;;5109015;28;19934;-84
2023/05/31 06:01:22;;;;;;;;;;;11.10;55.60;;;;;;5110778;28;19931;-79
2023/05/31 06:03:50;;;;;;;;;;;11.20;52.50;;;;;;5092684;28;19931;-79
2023/05/31 06:06:16;;;;;;;;;;;11.30;42.20;;;;;;5094223;28;19930;-78
2023/05/31 06:08:45;;;;;;;;;;;11.40;44.70;;;;;;5110710;28;20364;-78
2023/05/31 06:11:11;;;;;;;;;;;11.60;30.90;;;;;;5108470;28;20027;-79
2023/05/31 06:13:37;;;;;;;;;;;11.60;19.00;;;;;;5097795;28;20011;-78
2023/05/31 06:16:03;;;;;;;;;;;11.80;20.10;;;;;;5099477;28;20292;-78
2023/05/31 06:18:29;;;;;;;;;;;12.00;12.30;;;;;;5091626;28;20329;-78
2023/05/31 06:20:55;;;;;;;;;;;12.20;1.60;;;;;;5091796;28;20007;-79
2023/05/31 06:23:21;;;;;;;;;;;12.40;1.00;;;;;;5105229;28;20011;-78
2023/05/31 06:25:46;;;;;;;;;;;12.50;1.00;;;;;;5105526;28;20010;-78
2023/05/31 06:28:12;;;;;;;;;;;12.80;1.00;;;;;;5106575;28;20341;-80
2023/05/31 06:30:37;;;;;;;;;;;13.00;1.00;;;;;;5108978;28;19928;-78
2023/05/31 06:33:03;;;;;;;;;;;13.20;1.00;;;;;;5092645;28;19978;-79
2023/05/31 06:35:29;;;;;;;;;;;13.40;1.00;;;;;;5087344;28;20384;-79
2023/05/31 06:37:54;;;;;;;;;;;13.60;1.00;;;;;;5093063;28;19927;-78
2023/05/31 06:40:20;;;;;;;;;;;13.70;99.90;;;;;;5094253;28;20531;-78
2023/05/31 06:42:46;;;;;;;;;;;13.90;99.90;;;;;;5110707;28;19924;-79
2023/05/31 06:45:11;;;;;;;;;;;14.00;99.90;;;;;;5078904;27;19923;-81
2023/05/31 06:47:37;;;;;;;;;;;14.30;99.90;;;;;;5107244;28;19949;-78
2023/05/31 06:50:03;;;;;;;;;;;14.50;99.90;;;;;;5107652;28;20261;-84
2023/05/31 06:52:28;;;;;;;;;;;14.60;99.60;;;;;;5106360;28;19950;-78
2023/05/31 06:54:54;;;;;;;;;;;14.90;99.90;;;;;;5108545;28;19928;-79
2023/05/31 06:57:19;;;;;;;;;;;15.10;1.00;;;;;;5101894;28;19931;-80
2023/05/31 06:59:45;;;;;;;;;;;15.40;1.00;;;;;;5103664;27;20379;-80
2023/05/31 07:02:10;;;;;;;;;;;15.60;1.00;;;;;;5108822;28;19928;-79
2023/05/31 07:04:36;;;;;;;;;;;15.90;1.00;;;;;;5122046;27;19928;-78
2023/05/31 07:07:03;;;;;;;;;;;16.20;1.00;;;;;;5109403;27;19923;-79
2023/05/31 07:09:29;;;;;;;;;;;16.40;99.90;;;;;;5121474;27;19931;-79
2023/05/31 07:11:54;;;;;;;;;;;16.70;99.90;;;;;;5102715;27;20615;-80
2023/05/31 07:14:21;;;;;;;;;;;17.00;99.90;;;;;;5120575;27;19932;-79
2023/05/31 07:16:47;;;;;;;;;;;17.20;99.90;;;;;;5107765;28;19931;-79
2023/05/31 07:19:13;;;;;;;;;;;17.40;99.90;;;;;;5106204;28;19927;-79
2023/05/31 07:21:38;;;;;;;;;;;17.60;99.90;;;;;;5107721;28;19967;-79
2023/05/31 07:24:04;;;;;;;;;;;17.80;99.90;;;;;;5117946;27;20042;-82
2023/05/31 07:26:30;;;;;;;;;;;18.00;99.90;;;;;;5109432;28;19928;-79
2023/05/31 07:28:55;;;;;;;;;;;18.30;99.90;;;;;;5109527;27;20372;-80
2023/05/31 07:31:21;;;;;;;;;;;18.50;99.90;;;;;;5089624;27;19932;-80
2023/05/31 07:33:47;;;;;;;;;;;18.70;13.40;;;;;;5104444;28;19990;-78
2023/05/31 07:36:13;;;;;;;;;;;18.90;17.00;;;;;;5108123;28;20010;-79
2023/05/31 07:38:38;;;;;;;;;;;19.00;4.90;;;;;;5106707;27;19931;-79
2023/05/31 07:41:04;;;;;;;;;;;19.10;11.60;;;;;;5108272;27;19938;-80
2023/05/31 07:43:30;;;;;;;;;;;19.30;1.00;;;;;;5109314;27;19927;-81
2023/05/31 07:45:56;;;;;;;;;;;19.50;1.00;;;;;;5101368;28;20315;-86
2023/05/31 07:48:23;;;;;;;;;;;19.80;1.00;;;;;;5089791;28;20402;-89
2023/05/31 07:50:49;;;;;;;;;;;20.00;9.10;;;;;;5120719;27;20333;-84
2023/05/31 07:53:15;;;;;;;;;;;20.40;1.00;;;;;;5097906;28;19995;-87
2023/05/31 07:55:40;;;;;;;;;;;20.60;1.00;;;;;;5111209;28;20006;-82
2023/05/31 07:58:06;;;;;;;;;;;20.60;1.00;;;;;;5094031;28;19923;-83
2023/05/31 08:00:32;;;;;;;;;;;20.70;1.00;;;;;;5093961;28;19924;-82
2023/05/31 08:02:57;;;;;;;;;;;21.00;1.00;;;;;;5094834;27;19928;-83
2023/05/31 08:05:23;;;;;;;;;;;21.30;1.00;;;;;;5105152;28;20158;-82
2023/05/31 08:07:49;;;;;;;;;;;21.60;1.00;;;;;;5084223;28;20534;-81
2023/05/31 08:10:17;;;;;;;;;;;21.90;1.00;;;;;;5107497;28;19932;-83
2023/05/31 08:12:43;;;;;;;;;;;22.20;1.00;;;;;;5106734;28;19931;-79
2023/05/31 08:15:09;;;;;;;;;;;22.60;1.00;;;;;;5109800;28;19946;-83
2023/05/31 08:17:35;;;;;;;;;;;22.90;1.00;;;;;;5080745;28;20067;-84
2023/05/31 08:20:01;;;;;;;;;;;23.10;1.00;;;;;;5099517;28;20364;-86
2023/05/31 08:22:26;;;;;;;;;;;23.10;1.00;;;;;;5069714;28;19924;-85
2023/05/31 08:24:52;;;;;;;;;;;23.30;1.00;;;;;;5090986;28;19924;-84
2023/05/31 08:27:18;;;;;;;;;;;23.60;1.00;;;;;;5113344;28;20291;-85
2023/05/31 08:29:44;;;;;;;;;;;23.80;1.00;;;;;;5095548;28;19927;-87
2023/05/31 08:32:09;;;;;;;;;;;24.20;1.00;;;;;;5103846;28;19928;-86
2023/05/31 08:34:35;;;;;;;;;;;24.40;1.00;;;;;;5095975;28;20418;-85
2023/05/31 08:37:01;;;;;;;;;;;24.50;1.00;;;;;;5076895;28;19931;-84
2023/05/31 08:39:27;;;;;;;;;;;24.50;1.00;;;;;;5075890;28;19931;-84
2023/05/31 08:41:57;;;;;;;;;;;24.80;1.00;;;;;;5094651;28;20384;-83
2023/05/31 08:44:23;;;;;;;;;;;25.10;1.00;;;;;;5110670;28;19975;-82
2023/05/31 08:46:49;;;;;;;;;;;25.20;1.00;;;;;;5096971;28;19970;-84
2023/05/31 08:49:17;;;;;;;;;;;25.40;1.00;;;;;;5110373;28;19927;-90
2023/05/31 08:51:43;;;;;;;;;;;25.70;1.00;;;;;;5077355;28;19931;-84
2023/05/31 08:54:10;;;;;;;;;;;26.00;1.00;;;;;;5094168;28;20605;-83
2023/05/31 08:56:36;;;;;;;;;;;26.30;1.00;;;;;;5092874;28;19919;-85
2023/05/31 08:59:03;;;;;;;;;;;26.50;1.00;;;;;;5110759;28;19931;-84
2023/05/31 09:01:29;;;;;;;;;;;26.40;1.00;;;;;;5110292;28;19931;-83
2023/05/31 09:03:55;;;;;;;;;;;26.50;1.00;;;;;;5093479;28;20708;-84
2023/05/31 09:06:20;;;;;;;;;;;26.60;1.00;;;;;;5090793;28;19932;-85
2023/05/31 09:08:47;;;;;;;;;;;26.80;1.00;;;;;;5088135;28;19924;-85
2023/05/31 09:11:13;;;;;;;;;;;27.00;1.00;;;;;;5071869;28;20022;-83
2023/05/31 09:13:38;;;;;;;;;;;27.30;1.00;;;;;;5073414;28;19963;-84
2023/05/31 09:16:04;;;;;;;;;;;27.80;1.00;;;;;;5086411;28;20043;-85
2023/05/31 09:18:36;;;;;;;;;;;28.20;1.00;;;;;;5087308;28;19978;-84
2023/05/31 09:21:06;;;;;;;;;;;28.50;1.00;;;;;;5104069;28;19924;-85
2023/05/31 09:23:32;;;;;;;;;;;28.90;1.00;;;;;;5104241;28;19927;-84
2023/05/31 09:25:58;;;;;;;;;;;29.10;1.00;;;;;;5077712;28;19924;-84
2023/05/31 09:28:24;;;;;;;;;;;29.20;1.00;;;;;;5097901;28;20330;-84
2023/05/31 09:31:06;;;;;;;;;;;29.50;1.00;;;;;;5077841;28;19924;-85
2023/05/31 09:33:41;;;;;;;;;;;29.70;1.00;;;;;;5102874;28;19924;-84
2023/05/31 09:36:06;;;;;;;;;;;29.80;1.00;;;;;;5104290;28;20024;-85
2023/05/31 09:38:33;;;;;;;;;;;29.70;1.00;;;;;;5097051;28;19967;-85
2023/05/31 09:41:11;;;;;;;;;;;29.60;1.00;;;;;;5114699;28;19931;-84
2023/05/31 09:43:40;;;;;;;;;;;29.70;1.00;;;;;;5113263;27;19924;-85
2023/05/31 09:46:16;;;;;;;;;;;30.00;1.00;;;;;;5091727;28;20434;-78
2023/05/31 09:48:42;;;;;;;;;;;30.10;1.00;;;;;;5106488;28;20013;-80
2023/05/31 09:51:08;;;;;;;;;;;30.40;1.00;;;;;;5083004;28;20314;-80
2023/05/31 09:53:38;;;;;;;;;;;30.60;1.00;;;;;;5101144;28;19997;-80
2023/05/31 09:56:08;;;;;;;;;;;30.90;1.00;;;;;;5077738;28;19934;-81
2023/05/31 09:58:34;;;;;;;;;;;31.00;1.00;;;;;;5095445;28;19971;-81
2023/05/31 10:01:00;;;;;;;;;;;31.20;1.00;;;;;;5066599;28;20024;-83
2023/05/31 10:03:27;;;;;;;;;;;31.30;1.00;;;;;;5093776;28;20001;-82
2023/05/31 10:05:52;;;;;;;;;;;31.10;1.00;;;;;;5086797;28;20022;-80
2023/05/31 10:08:18;;;;;;;;;;;31.00;1.00;;;;;;5094085;28;20018;-80
2023/05/31 10:10:43;;;;;;;;;;;30.80;1.00;;;;;;5092480;28;19920;-80
2023/05/31 10:13:11;;;;;;;;;;;30.80;1.00;;;;;;5109454;28;19932;-81
2023/05/31 10:15:37;;;;;;;;;;;31.00;1.00;;;;;;5106249;28;19931;-80
2023/05/31 10:18:02;;;;;;;;;;;31.00;1.00;;;;;;5090958;28;19923;-78
2023/05/31 10:20:38;;;;;;;;;;;31.20;1.00;;;;;;5088878;28;19930;-92
2023/05/31 10:23:07;;;;;;;;;;;31.00;1.00;;;;;;5083107;28;19932;-87
2023/05/31 10:25:56;;;;;;;;;;;30.80;1.00;;;;;;5092179;28;19928;-87
2023/05/31 10:28:30;;;;;;;;;;;31.00;1.00;;;;;;5096569;28;19930;-86
2023/05/31 10:30:56;;;;;;;;;;;30.90;1.00;;;;;;5090039;28;20041;-87
2023/05/31 10:33:28;;;;;;;;;;;30.90;1.00;;;;;;5090906;28;19924;-86
2023/05/31 10:35:55;;;;;;;;;;;30.60;1.00;;;;;;5085863;28;19962;-87
2023/05/31 10:38:24;;;;;;;;;;;30.20;1.00;;;;;;5109461;28;19924;-88
2023/05/31 10:40:56;;;;;;;;;;;30.20;1.00;;;;;;5093951;28;20431;-88
2023/05/31 10:43:59;;;;;;;;;;;;;;;;;;;;;
2023/05/31 10:46:27;;;;;;;;;;;30.50;1.00;;;;;;5102523;28;19927;-86
2023/05/31 10:48:56;;;;;;;;;;;30.80;1.00;;;;;;5090884;28;19928;-86
2023/05/31 10:51:41;;;;;;;;;;;31.20;1.00;;;;;;5086441;28;19962;-87
2023/05/31 10:54:09;;;;;;;;;;;31.50;1.00;;;;;;5091411;28;19924;-86
2023/05/31 10:56:38;;;;;;;;;;;31.30;1.00;;;;;;5102678;28;20010;-87
2023/05/31 10:59:19;;;;;;;;;;;31.30;1.00;;;;;;5097351;28;19928;-85
2023/05/31 11:01:53;;;;;;;;;;;31.20;1.00;;;;;;5105303;28;19924;-86
2023/05/31 11:04:24;;;;;;;;;;;31.30;1.00;;;;;;5079247;28;20012;-86
2023/05/31 11:07:12;;;;;;;;;;;31.40;1.00;;;;;;5089690;28;20057;-87
2023/05/31 11:09:39;;;;;;;;;;;31.30;1.00;;;;;;5088819;28;20299;-87
2023/05/31 11:12:07;;;;;;;;;;;31.50;1.00;;;;;;5111312;28;20038;-86
2023/05/31 11:14:35;;;;;;;;;;;31.50;1.00;;;;;;5090133;28;19924;-87
2023/05/31 11:17:05;;;;;;;;;;;31.60;1.00;;;;;;5091506;28;20014;-86
2023/05/31 11:19:36;;;;;;;;;;;31.90;1.00;;;;;;5090074;28;20088;-89
2023/05/31 11:22:11;;;;;;;;;;;32.00;1.00;;;;;;5089093;28;20419;-87
2023/05/31 11:24:50;;;;;;;;;;;32.10;1.00;;;;;;5114318;27;19931;-86
2023/05/31 11:27:19;;;;;;;;;;;31.90;1.00;;;;;;5095038;28;19996;-86
2023/05/31 11:29:48;;;;;;;;;;;31.70;1.00;;;;;;5107803;27;20388;-87
2023/05/31 11:32:16;;;;;;;;;;;31.90;1.00;;;;;;5100659;28;19967;-87
2023/05/31 11:37:37;;;;;;;;;;;31.90;1.00;;;;;;5108203;28;19970;-89
2023/05/31 11:40:06;;;;;;;;;;;31.90;1.00;;;;;;5096751;28;19923;-87
2023/05/31 11:42:32;;;;;;;;;;;32.10;1.00;;;;;;5112989;27;19969;-87
2023/05/31 11:45:03;;;;;;;;;;;32.00;1.00;;;;;;5104685;27;19924;-88
2023/05/31 11:47:34;;;;;;;;;;;32.00;1.00;;;;;;5092834;28;19923;-87
2023/05/31 11:50:00;;;;;;;;;;;32.20;1.00;;;;;;5110826;28;19927;-88
2023/05/31 11:52:26;;;;;;;;;;;32.40;1.00;;;;;;5090692;28;19931;-88
2023/05/31 11:55:06;;;;;;;;;;;32.50;1.00;;;;;;5089895;28;20018;-87
2023/05/31 11:57:42;;;;;;;;;;;32.60;1.00;;;;;;5092208;28;19927;-87
2023/05/31 12:00:11;;;;;;;;;;;32.50;1.00;;;;;;5107726;28;19932;-84
2023/05/31 12:02:40;;;;;;;;;;;32.80;1.00;;;;;;5108571;28;19931;-87
2023/05/31 12:05:15;;;;;;;;;;;33.20;1.00;;;;;;5091343;28;20021;-85
2023/05/31 12:07:41;;;;;;;;;;;33.20;1.00;;;;;;5073432;28;19928;-86
2023/05/31 12:10:08;;;;;;;;;;;33.30;1.00;;;;;;5087394;28;19924;-85
2023/05/31 12:12:56;;;;;;;;;;;33.00;1.00;;;;;;5109307;28;19934;-86
2023/05/31 12:15:44;;;;;;;;;;;32.80;1.00;;;;;;5089842;28;19938;-87
2023/05/31 12:18:19;;;;;;;;;;;32.50;1.00;;;;;;5097027;28;19932;-86
2023/05/31 12:20:59;;;;;;;;;;;32.30;1.00;;;;;;5087821;28;19930;-86
2023/05/31 12:23:29;;;;;;;;;;;32.00;1.00;;;;;;5089043;28;19931;-87
2023/05/31 12:26:07;;;;;;;;;;;32.10;1.00;;;;;;5072642;28;20421;-85
2023/05/31 12:28:44;;;;;;;;;;;32.20;1.00;;;;;;5092200;28;19950;-85
2023/05/31 12:31:12;;;;;;;;;;;32.00;1.00;;;;;;5091979;28;19927;-85
2023/05/31 12:33:50;;;;;;;;;;;32.10;1.00;;;;;;5105030;28;19968;-89
2023/05/31 12:36:26;;;;;;;;;;;32.00;1.00;;;;;;5090924;28;19977;-86
2023/05/31 12:39:00;;;;;;;;;;;32.10;1.00;;;;;;5107035;28;19923;-86
2023/05/31 12:41:47;;;;;;;;;;;32.10;1.00;;;;;;5083565;28;19978;-85
2023/05/31 12:44:27;;;;;;;;;;;32.10;1.00;;;;;;5091734;28;19928;-86
2023/05/31 12:47:04;;;;;;;;;;;32.10;1.00;;;;;;5077619;28;20098;-86
2023/05/31 12:49:34;;;;;;;;;;;32.20;1.00;;;;;;5098453;28;19928;-85
2023/05/31 12:52:03;;;;;;;;;;;32.30;1.00;;;;;;5107344;28;19928;-87
2023/05/31 12:54:30;;;;;;;;;;;32.50;1.00;;;;;;5108953;28;19932;-83
2023/05/31 12:57:08;;;;;;;;;;;32.60;1.00;;;;;;5096387;28;20018;-89
2023/05/31 12:59:47;;;;;;;;;;;32.70;1.00;;;;;;5089025;28;19968;-84
2023/05/31 13:02:18;;;;;;;;;;;32.40;1.00;;;;;;5093965;28;19924;-86
2023/05/31 13:04:56;;;;;;;;;;;;;;;;;;;;;
2023/05/31 13:07:22;;;;;;;;;;;32.40;1.00;;;;;;5106670;28;19930;-86
2023/05/31 13:09:48;;;;;;;;;;;32.40;1.00;;;;;;5097406;28;19923;-89
2023/05/31 13:12:31;;;;;;;;;;;;;;;;;;;;;
2023/05/31 13:15:38;;;;;;;;;;;32.20;1.00;;;;;;5098857;28;19973;-85
2023/05/31 13:18:27;;;;;;;;;;;32.10;1.00;;;;;;5112645;27;19932;-86
2023/05/31 13:21:02;;;;;;;;;;;31.80;1.00;;;;;;5085761;28;19930;-82
2023/05/31 13:23:27;;;;;;;;;;;31.70;1.00;;;;;;5097278;28;19923;-82
2023/05/31 13:25:53;;;;;;;;;;;32.00;1.00;;;;;;5092942;28;19935;-85
2023/05/31 13:28:21;;;;;;;;;;;32.20;1.00;;;;;;5085890;28;19924;-84
2023/05/31 13:30:47;;;;;;;;;;;32.20;1.00;;;;;;5057861;28;20357;-83
2023/05/31 13:33:12;;;;;;;;;;;32.40;1.00;;;;;;5040516;28;19949;-83
2023/05/31 13:35:39;;;;;;;;;;;32.40;1.00;;;;;;5036374;28;19924;-83
2023/05/31 13:38:05;;;;;;;;;;;32.30;1.00;;;;;;5089467;28;20011;-84
2023/05/31 13:40:31;;;;;;;;;;;32.20;1.00;;;;;;5074827;28;20007;-84
2023/05/31 13:42:57;;;;;;;;;;;32.20;1.00;;;;;;5041275;28;19931;-84
2023/05/31 13:45:22;;;;;;;;;;;32.00;1.00;;;;;;5076986;28;19931;-83
2023/05/31 13:47:48;;;;;;;;;;;31.70;1.00;;;;;;5075194;28;19977;-83
2023/05/31 13:50:13;;;;;;;;;;;31.50;1.00;;;;;;5063452;28;19935;-84
2023/05/31 13:52:39;;;;;;;;;;;31.70;1.00;;;;;;5064336;28;20265;-82
2023/05/31 13:55:05;;;;;;;;;;;31.90;1.00;;;;;;5061462;28;19936;-88
2023/05/31 13:57:30;;;;;;;;;;;31.90;1.00;;;;;;5079252;28;19988;-94
2023/05/31 13:59:57;;;;;;;;;;;32.00;1.00;;;;;;5059707;28;19924;-83
2023/05/31 14:02:23;;;;;;;;;;;32.00;1.00;;;;;;5074126;28;20005;-81
2023/05/31 14:04:48;;;;;;;;;;;31.90;1.00;;;;;;5072613;28;19971;-80
2023/05/31 14:07:14;;;;;;;;;;;31.60;1.00;;;;;;5054391;28;20400;-81
2023/05/31 14:09:40;;;;;;;;;;;31.50;1.00;;;;;;5062649;28;19935;-83
2023/05/31 14:12:07;;;;;;;;;;;31.70;1.00;;;;;;5044006;28;19935;-86
